Time;durP1;ratioP1;P1;durP2;ratioP2;P2;SDS_P1;SDS_P2;PMS_P1;PMS_P2;Temp;Humidity;BMP_temperature;BMP_pressure;BME280_temperature;BME280_humidity;BME280_pressure;Samples;Min_cycle;Max_cycle;Signal;HPM_P1;HPM_P2
2022/03/16 00:00:27;;;;;;;49.70;24.45;;;;;;;;;;5029037;28;20033;-79
2022/03/16 00:02:53;;;;;;;51.15;25.83;;;;;;;;;;4994920;28;20049;-79
2022/03/16 00:05:19;;;;;;;53.72;24.92;;;;;;;;;;5011291;28;20041;-79
2022/03/16 00:07:46;;;;;;;50.70;23.75;;;;;;;;;;5011278;28;20532;-79
2022/03/16 00:10:12;;;;;;;52.35;26.20;;;;;;;;;;5010386;28;20049;-79
2022/03/16 00:12:39;;;;;;;57.15;25.65;;;;;;;;;;5028389;28;20034;-77
2022/03/16 00:15:06;;;;;;;54.55;26.90;;;;;;;;;;5009733;28;20034;-77
2022/03/16 00:17:32;;;;;;;62.42;27.88;;;;;;;;;;4994646;28;20040;-77
2022/03/16 00:19:58;;;;;;;57.13;26.70;;;;;;;;;;5010440;28;20048;-79
2022/03/16 00:22:24;;;;;;;68.22;31.63;;;;;;;;;;5011092;28;20041;-79
2022/03/16 00:24:50;;;;;;;68.50;31.17;;;;;;;;;;5011132;28;20391;-78
2022/03/16 00:27:16;;;;;;;69.50;32.03;;;;;;;;;;5011140;28;20060;-79
2022/03/16 00:29:42;;;;;;;67.63;32.63;;;;;;;;;;4994699;28;20057;-78
2022/03/16 00:32:08;;;;;;;75.70;32.88;;;;;;;;;;5009342;28;20033;-76
2022/03/16 00:34:34;;;;;;;77.32;34.78;;;;;;;;;;5010314;28;20087;-79
2022/03/16 00:37:00;;;;;;;76.65;32.90;;;;;;;;;;4994167;28;20044;-79
2022/03/16 00:39:27;;;;;;;73.30;31.92;;;;;;;;;;4994331;28;20041;-79
2022/03/16 00:41:53;;;;;;;70.00;31.17;;;;;;;;;;5010302;28;20490;-79
2022/03/16 00:44:19;;;;;;;58.78;28.65;;;;;;;;;;5010462;28;20506;-79
2022/03/16 00:46:45;;;;;;;61.25;29.58;;;;;;;;;;5028396;28;20041;-78
2022/03/16 00:49:11;;;;;;;68.57;32.58;;;;;;;;;;5010152;28;20083;-78
2022/03/16 00:51:39;;;;;;;70.45;33.30;;;;;;;;;;5020468;28;20057;-79
2022/03/16 00:54:05;;;;;;;63.75;30.20;;;;;;;;;;5010188;28;20067;-78
2022/03/16 00:56:31;;;;;;;63.85;30.08;;;;;;;;;;5010515;28;20038;-79
2022/03/16 00:58:57;;;;;;;63.10;28.75;;;;;;;;;;5009900;28;20033;-79
2022/03/16 01:01:23;;;;;;;40.25;21.25;;;;;;;;;;5010360;28;20037;-79
2022/03/16 01:03:50;;;;;;;51.72;26.15;;;;;;;;;;5010040;28;20121;-78
2022/03/16 01:06:16;;;;;;;56.95;26.10;;;;;;;;;;5010081;28;20041;-79
2022/03/16 01:08:45;;;;;;;52.42;24.35;;;;;;;;;;5010496;28;20045;-79
2022/03/16 01:11:12;;;;;;;64.13;27.20;;;;;;;;;;5009507;28;20098;-79
2022/03/16 01:13:38;;;;;;;64.68;28.92;;;;;;;;;;5009676;28;20029;-77
2022/03/16 01:16:04;;;;;;;68.28;28.63;;;;;;;;;;4993669;28;20604;-76
2022/03/16 01:18:30;;;;;;;56.95;27.98;;;;;;;;;;5010387;28;20387;-77
2022/03/16 01:20:57;;;;;;;67.97;29.23;;;;;;;;;;5009380;28;20041;-79
2022/03/16 01:23:23;;;;;;;63.25;29.15;;;;;;;;;;5027851;28;20041;-79
2022/03/16 01:25:49;;;;;;;67.93;29.77;;;;;;;;;;5010081;28;20506;-79
2022/03/16 01:28:15;;;;;;;68.45;32.13;;;;;;;;;;4993462;28;20045;-79
2022/03/16 01:30:43;;;;;;;80.15;35.28;;;;;;;;;;5009787;28;20046;-77
2022/03/16 01:33:09;;;;;;;99.38;38.53;;;;;;;;;;5009643;28;20390;-79
2022/03/16 01:35:35;;;;;;;97.00;39.50;;;;;;;;;;5009887;28;20040;-76
2022/03/16 01:38:01;;;;;;;85.15;33.05;;;;;;;;;;4992791;28;20045;-77
2022/03/16 01:40:27;;;;;;;65.38;30.85;;;;;;;;;;5009180;28;20071;-79
2022/03/16 01:42:53;;;;;;;79.78;34.63;;;;;;;;;;4977349;28;20451;-77
2022/03/16 01:45:20;;;;;;;74.88;33.47;;;;;;;;;;5009217;28;20050;-77
2022/03/16 01:47:46;;;;;;;71.97;31.75;;;;;;;;;;5009608;28;20049;-77
2022/03/16 01:50:12;;;;;;;54.08;25.85;;;;;;;;;;5009121;28;20048;-77
2022/03/16 01:52:39;;;;;;;66.22;30.48;;;;;;;;;;5027287;28;20053;-77
2022/03/16 01:55:06;;;;;;;61.13;29.00;;;;;;;;;;4992785;28;20090;-77
2022/03/16 01:57:35;;;;;;;63.60;29.67;;;;;;;;;;5009872;28;20431;-76
2022/03/16 02:00:04;;;;;;;61.58;28.73;;;;;;;;;;4992176;28;20048;-76
2022/03/16 02:02:30;;;;;;;63.80;29.15;;;;;;;;;;5007756;28;20498;-77
2022/03/16 02:04:56;;;;;;;58.95;29.23;;;;;;;;;;5009777;28;20552;-76
2022/03/16 02:07:22;;;;;;;61.80;28.88;;;;;;;;;;5009080;28;20045;-77
2022/03/16 02:09:48;;;;;;;59.55;28.17;;;;;;;;;;5009033;28;20041;-76
2022/03/16 02:12:15;;;;;;;64.90;30.25;;;;;;;;;;5008645;28;20040;-76
2022/03/16 02:14:41;;;;;;;63.75;30.50;;;;;;;;;;5009187;28;20033;-76
2022/03/16 02:17:07;;;;;;;65.95;29.67;;;;;;;;;;5009269;28;20124;-76
2022/03/16 02:19:34;;;;;;;65.85;30.80;;;;;;;;;;5009447;28;20167;-77
2022/03/16 02:22:02;;;;;;;67.00;30.48;;;;;;;;;;5026683;28;20048;-77
2022/03/16 02:24:31;;;;;;;91.07;38.13;;;;;;;;;;5004350;28;20528;-76
2022/03/16 02:26:58;;;;;;;88.68;37.75;;;;;;;;;;5009359;28;20049;-76
2022/03/16 02:29:24;;;;;;;92.18;38.00;;;;;;;;;;5026769;28;20040;-77
2022/03/16 02:31:50;;;;;;;70.80;32.40;;;;;;;;;;4992916;28;20038;-77
2022/03/16 02:34:16;;;;;;;66.03;30.88;;;;;;;;;;4976217;28;20060;-77
2022/03/16 02:36:43;;;;;;;58.20;29.50;;;;;;;;;;5009017;28;20034;-77
2022/03/16 02:39:09;;;;;;;69.78;32.75;;;;;;;;;;5009042;28;20125;-77
2022/03/16 02:41:35;;;;;;;71.13;31.77;;;;;;;;;;5008671;28;20030;-77
2022/03/16 02:44:02;;;;;;;59.55;28.95;;;;;;;;;;5026061;28;20048;-77
2022/03/16 02:46:28;;;;;;;54.10;26.45;;;;;;;;;;5008874;28;20048;-80
2022/03/16 02:48:54;;;;;;;53.58;26.38;;;;;;;;;;5008998;28;20037;-79
2022/03/16 02:51:20;;;;;;;53.17;26.55;;;;;;;;;;5000014;28;20041;-79
2022/03/16 02:53:46;;;;;;;44.22;22.48;;;;;;;;;;5008862;28;20053;-79
2022/03/16 02:56:12;;;;;;;54.50;26.92;;;;;;;;;;5011717;28;20038;-79
2022/03/16 02:58:38;;;;;;;63.42;29.75;;;;;;;;;;5012420;28;20122;-79
2022/03/16 03:01:05;;;;;;;63.85;29.60;;;;;;;;;;4993248;28;20037;-79
2022/03/16 03:03:31;;;;;;;64.57;30.95;;;;;;;;;;5011934;28;20033;-79
2022/03/16 03:05:57;;;;;;;63.22;28.85;;;;;;;;;;5028617;28;20048;-80
2022/03/16 03:08:23;;;;;;;64.60;30.38;;;;;;;;;;5012127;28;20119;-79
2022/03/16 03:10:49;;;;;;;70.80;31.60;;;;;;;;;;4995714;28;20037;-76
2022/03/16 03:13:16;;;;;;;58.45;26.95;;;;;;;;;;4995734;28;20053;-79
2022/03/16 03:15:42;;;;;;;65.10;28.92;;;;;;;;;;5029500;28;20042;-79
2022/03/16 03:18:08;;;;;;;70.20;32.35;;;;;;;;;;5011485;28;20385;-76
2022/03/16 03:20:35;;;;;;;114.18;33.53;;;;;;;;;;5029405;28;20092;-76
2022/03/16 03:23:01;;;;;;;68.10;31.42;;;;;;;;;;5011334;28;20094;-79
2022/03/16 03:25:27;;;;;;;73.18;29.70;;;;;;;;;;4995222;28;20047;-79
2022/03/16 03:27:54;;;;;;;73.13;29.40;;;;;;;;;;5011281;28;20041;-76
2022/03/16 03:30:20;;;;;;;139.60;30.38;;;;;;;;;;5009702;28;20045;-78
2022/03/16 03:32:46;;;;;;;76.88;28.98;;;;;;;;;;4995445;28;20059;-79
2022/03/16 03:35:12;;;;;;;56.58;28.23;;;;;;;;;;5011357;28;20033;-79
2022/03/16 03:37:38;;;;;;;55.97;29.17;;;;;;;;;;5011637;28;20045;-79
2022/03/16 03:40:05;;;;;;;53.72;28.98;;;;;;;;;;4995255;28;20041;-79
2022/03/16 03:42:31;;;;;;;66.20;28.08;;;;;;;;;;5012111;28;20387;-79
2022/03/16 03:44:57;;;;;;;228.15;31.63;;;;;;;;;;5029134;28;20046;-79
2022/03/16 03:47:23;;;;;;;59.63;30.65;;;;;;;;;;5011054;28;20128;-79
2022/03/16 03:49:50;;;;;;;63.38;32.08;;;;;;;;;;5011943;28;20045;-79
2022/03/16 03:52:16;;;;;;;78.88;36.45;;;;;;;;;;5021413;28;20072;-76
2022/03/16 03:54:43;;;;;;;64.90;31.67;;;;;;;;;;5011655;28;20038;-79
2022/03/16 03:57:09;;;;;;;69.93;34.50;;;;;;;;;;5011166;28;20393;-79
2022/03/16 03:59:35;;;;;;;84.40;38.08;;;;;;;;;;5011605;28;20061;-79
2022/03/16 04:02:01;;;;;;;74.90;35.42;;;;;;;;;;5011476;28;20383;-79
2022/03/16 04:04:27;;;;;;;88.93;39.15;;;;;;;;;;5011355;28;20041;-79
2022/03/16 04:06:53;;;;;;;91.32;40.40;;;;;;;;;;4994799;28;20479;-79
2022/03/16 04:09:19;;;;;;;87.97;39.03;;;;;;;;;;4994662;28;20037;-79
2022/03/16 04:11:45;;;;;;;86.20;39.88;;;;;;;;;;5011106;28;20045;-79
2022/03/16 04:14:12;;;;;;;101.55;45.35;;;;;;;;;;5011010;28;20045;-79
2022/03/16 04:16:38;;;;;;;113.57;45.85;;;;;;;;;;5010949;28;20394;-79
2022/03/16 04:19:04;;;;;;;102.63;42.47;;;;;;;;;;5010789;28;20039;-79
2022/03/16 04:21:30;;;;;;;81.72;37.20;;;;;;;;;;5011090;28;20390;-79
2022/03/16 04:23:57;;;;;;;102.18;40.85;;;;;;;;;;4994597;28;20048;-79
2022/03/16 04:26:23;;;;;;;92.75;40.65;;;;;;;;;;5010498;28;20088;-79
2022/03/16 04:28:49;;;;;;;96.53;41.28;;;;;;;;;;4994815;28;20517;-79
2022/03/16 04:31:15;;;;;;;93.90;41.25;;;;;;;;;;5010399;28;20037;-79
2022/03/16 04:33:41;;;;;;;83.22;39.75;;;;;;;;;;4994134;28;20045;-79
2022/03/16 04:36:07;;;;;;;99.03;41.47;;;;;;;;;;5028109;28;20482;-79
2022/03/16 04:38:33;;;;;;;80.68;37.92;;;;;;;;;;4994842;28;20042;-79
2022/03/16 04:41:03;;;;;;;59.35;30.30;;;;;;;;;;5010907;28;20049;-79
2022/03/16 04:43:29;;;;;;;92.57;37.83;;;;;;;;;;4994657;28;20128;-76
2022/03/16 04:45:55;;;;;;;87.72;37.85;;;;;;;;;;4994265;28;20049;-79
2022/03/16 04:48:21;;;;;;;63.35;33.33;;;;;;;;;;5010596;28;20080;-76
2022/03/16 04:50:47;;;;;;;75.88;37.72;;;;;;;;;;4993860;28;20136;-76
2022/03/16 04:53:13;;;;;;;87.10;39.75;;;;;;;;;;5052541;28;20848;-79
2022/03/16 04:55:39;;;;;;;108.40;44.42;;;;;;;;;;5090344;28;20047;-76
2022/03/16 04:58:06;;;;;;;104.25;45.03;;;;;;;;;;5089997;28;20134;-76
2022/03/16 05:00:33;;;;;;;101.30;43.70;;;;;;;;;;5087588;28;20035;-76
2022/03/16 05:02:59;;;;;;;101.65;38.75;;;;;;;;;;5090782;28;20078;-76
2022/03/16 05:05:25;;;;;;;96.45;38.92;;;;;;;;;;5084574;28;20493;-79
2022/03/16 05:07:51;;;;;;;93.13;41.10;;;;;;;;;;5089284;28;20055;-76
2022/03/16 05:10:17;;;;;;;96.78;42.17;;;;;;;;;;5086320;28;20569;-79
2022/03/16 05:12:44;;;;;;;92.65;41.75;;;;;;;;;;5088169;28;20393;-79
2022/03/16 05:15:13;;;;;;;106.45;43.53;;;;;;;;;;5073002;28;20549;-79
2022/03/16 05:17:39;;;;;;;104.00;45.08;;;;;;;;;;5088910;28;20051;-79
2022/03/16 05:20:06;;;;;;;101.13;46.05;;;;;;;;;;5088140;28;20040;-79
2022/03/16 05:22:33;;;;;;;113.82;48.72;;;;;;;;;;5087344;28;20042;-79
2022/03/16 05:24:59;;;;;;;116.05;48.45;;;;;;;;;;5088826;28;20048;-79
2022/03/16 05:27:25;;;;;;;101.95;45.33;;;;;;;;;;5081047;28;20470;-79
2022/03/16 05:29:51;;;;;;;109.63;47.38;;;;;;;;;;5088297;28;20039;-79
2022/03/16 05:32:17;;;;;;;99.05;45.15;;;;;;;;;;5089130;28;20074;-76
2022/03/16 05:34:43;;;;;;;104.35;46.88;;;;;;;;;;5089207;28;20032;-76
2022/03/16 05:37:09;;;;;;;109.63;47.67;;;;;;;;;;5071178;28;20428;-76
2022/03/16 05:39:35;;;;;;;113.43;50.05;;;;;;;;;;5088089;28;20040;-76
2022/03/16 05:42:01;;;;;;;115.72;50.30;;;;;;;;;;5087678;28;20042;-76
2022/03/16 05:44:27;;;;;;;120.70;51.92;;;;;;;;;;5071026;28;20365;-76
2022/03/16 05:46:54;;;;;;;122.57;52.65;;;;;;;;;;5088056;28;20039;-76
2022/03/16 05:49:22;;;;;;;132.70;52.78;;;;;;;;;;5087136;28;20040;-79
2022/03/16 05:51:48;;;;;;;128.63;52.88;;;;;;;;;;5070768;28;20062;-79
2022/03/16 05:54:14;;;;;;;113.40;52.17;;;;;;;;;;5009286;28;20444;-79
2022/03/16 05:56:40;;;;;;;119.68;52.05;;;;;;;;;;5009367;28;20041;-79
2022/03/16 05:59:06;;;;;;;120.35;51.97;;;;;;;;;;5009906;28;20474;-79
2022/03/16 06:01:32;;;;;;;117.70;49.65;;;;;;;;;;5009970;28;20423;-80
2022/03/16 06:03:59;;;;;;;116.65;49.72;;;;;;;;;;5009560;28;20037;-80
2022/03/16 06:06:26;;;;;;;113.65;49.40;;;;;;;;;;5026751;28;20443;-80
2022/03/16 06:08:53;;;;;;;105.70;45.15;;;;;;;;;;5009711;28;20049;-80
2022/03/16 06:11:19;;;;;;;91.75;41.30;;;;;;;;;;5026707;28;20045;-80
2022/03/16 06:13:45;;;;;;;91.28;39.92;;;;;;;;;;5009585;28;20410;-80
2022/03/16 06:16:11;;;;;;;98.30;45.80;;;;;;;;;;5009532;28;20042;-80
2022/03/16 06:18:37;;;;;;;89.68;43.95;;;;;;;;;;5009246;28;20030;-77
2022/03/16 06:21:03;;;;;;;95.10;42.58;;;;;;;;;;5008973;28;20041;-77
2022/03/16 06:23:29;;;;;;;101.40;46.67;;;;;;;;;;5008881;28;20049;-77
2022/03/16 06:25:55;;;;;;;105.35;47.70;;;;;;;;;;5026890;28;20041;-78
2022/03/16 06:28:21;;;;;;;105.60;49.13;;;;;;;;;;5009480;28;20395;-78
2022/03/16 06:30:47;;;;;;;100.55;47.50;;;;;;;;;;4996265;28;20049;-78
2022/03/16 06:33:13;;;;;;;97.35;46.90;;;;;;;;;;5010268;28;20076;-78
2022/03/16 06:35:39;;;;;;;92.88;45.58;;;;;;;;;;5012646;28;20128;-78
2022/03/16 06:38:06;;;;;;;92.20;44.63;;;;;;;;;;5012012;28;20469;-78
2022/03/16 06:40:32;;;;;;;91.28;44.95;;;;;;;;;;5010032;28;20133;-79
2022/03/16 06:42:59;;;;;;;85.10;42.72;;;;;;;;;;5012876;28;20034;-80
2022/03/16 06:45:26;;;;;;;82.70;42.25;;;;;;;;;;5009776;28;20073;-80
2022/03/16 06:47:56;;;;;;;85.47;43.08;;;;;;;;;;5012561;28;20041;-79
2022/03/16 06:50:22;;;;;;;88.47;45.90;;;;;;;;;;4995749;28;20037;-80
2022/03/16 06:52:49;;;;;;;90.05;46.40;;;;;;;;;;5012107;28;20052;-77
2022/03/16 06:55:15;;;;;;;87.90;45.33;;;;;;;;;;5012322;28;20565;-80
2022/03/16 06:57:41;;;;;;;91.22;46.75;;;;;;;;;;4996262;28;20049;-80
2022/03/16 07:00:08;;;;;;;90.88;47.00;;;;;;;;;;5011547;28;20065;-77
2022/03/16 07:02:50;;;;;;;86.53;45.35;;;;;;;;;;5012327;28;20049;-77
2022/03/16 07:05:18;;;;;;;84.57;45.55;;;;;;;;;;5012023;28;20045;-77
2022/03/16 07:07:44;;;;;;;91.30;45.67;;;;;;;;;;5011712;28;20038;-77
2022/03/16 07:10:11;;;;;;;80.07;42.53;;;;;;;;;;5011793;28;20483;-77
2022/03/16 07:12:37;;;;;;;78.38;43.13;;;;;;;;;;4995950;28;20068;-77
2022/03/16 07:15:03;;;;;;;69.55;36.38;;;;;;;;;;4995746;28;20038;-77
2022/03/16 07:17:29;;;;;;;72.78;39.95;;;;;;;;;;5011576;28;20034;-77
2022/03/16 07:19:55;;;;;;;70.75;39.83;;;;;;;;;;5011411;28;20045;-77
2022/03/16 07:22:21;;;;;;;67.80;37.85;;;;;;;;;;5028615;28;20486;-77
2022/03/16 07:24:47;;;;;;;64.38;37.60;;;;;;;;;;5029958;28;20535;-78
2022/03/16 07:27:14;;;;;;;62.38;38.20;;;;;;;;;;4995757;28;20077;-80
2022/03/16 07:29:40;;;;;;;66.35;38.28;;;;;;;;;;4995650;28;20395;-76
2022/03/16 07:32:07;;;;;;;68.50;40.00;;;;;;;;;;4995440;28;20447;-77
2022/03/16 07:34:33;;;;;;;65.03;39.45;;;;;;;;;;5012158;28;20045;-79
2022/03/16 07:37:00;;;;;;;63.33;35.38;;;;;;;;;;5029089;28;20029;-77
2022/03/16 07:39:26;;;;;;;73.28;42.33;;;;;;;;;;5028402;28;20033;-77
2022/03/16 07:41:52;;;;;;;71.72;41.15;;;;;;;;;;5010916;28;20550;-79
2022/03/16 07:44:18;;;;;;;70.53;41.58;;;;;;;;;;5011690;28;20091;-79
2022/03/16 07:46:44;;;;;;;67.15;39.83;;;;;;;;;;4995454;28;20041;-79
2022/03/16 07:49:10;;;;;;;67.13;40.28;;;;;;;;;;4995377;28;20490;-79
2022/03/16 07:51:36;;;;;;;65.43;38.38;;;;;;;;;;4994754;28;20068;-76
2022/03/16 07:54:02;;;;;;;64.80;38.17;;;;;;;;;;5010982;28;20052;-77
2022/03/16 07:56:28;;;;;;;57.67;36.58;;;;;;;;;;5029161;28;20559;-77
2022/03/16 07:58:56;;;;;;;55.03;35.15;;;;;;;;;;5011003;28;20120;-76
2022/03/16 08:01:22;;;;;;;53.33;33.63;;;;;;;;;;4978619;28;20124;-76
2022/03/16 08:03:48;;;;;;;51.20;30.77;;;;;;;;;;5011661;28;20045;-78
2022/03/16 08:06:15;;;;;;;43.03;27.20;;;;;;;;;;5011125;28;20038;-76
2022/03/16 08:08:41;;;;;;;39.92;25.27;;;;;;;;;;5011019;28;20056;-75
2022/03/16 08:11:07;;;;;;;43.38;29.13;;;;;;;;;;5028375;28;20038;-78
2022/03/16 08:13:35;;;;;;;43.95;27.90;;;;;;;;;;5029162;28;20053;-76
2022/03/16 08:16:01;;;;;;;39.38;24.33;;;;;;;;;;5028609;28;20391;-77
2022/03/16 08:18:27;;;;;;;42.65;27.15;;;;;;;;;;5010833;28;20401;-78
2022/03/16 08:20:53;;;;;;;42.25;26.65;;;;;;;;;;5010824;28;20037;-78
2022/03/16 08:23:19;;;;;;;40.15;22.05;;;;;;;;;;5010569;28;20094;-76
2022/03/16 08:25:47;;;;;;;37.80;25.30;;;;;;;;;;5011013;28;20524;-79
2022/03/16 08:28:13;;;;;;;35.78;21.73;;;;;;;;;;5010835;28;20053;-76
2022/03/16 08:30:40;;;;;;;37.08;23.30;;;;;;;;;;5011015;28;20590;-76
2022/03/16 08:33:06;;;;;;;34.67;23.50;;;;;;;;;;4994104;28;20047;-77
2022/03/16 08:35:32;;;;;;;32.92;21.27;;;;;;;;;;5010750;28;20046;-76
2022/03/16 08:37:58;;;;;;;32.00;21.67;;;;;;;;;;5028240;28;20371;-75
2022/03/16 08:40:24;;;;;;;33.47;20.33;;;;;;;;;;5028051;28;20120;-76
2022/03/16 08:42:52;;;;;;;25.23;17.75;;;;;;;;;;4994669;28;20563;-74
2022/03/16 08:45:18;;;;;;;28.48;19.23;;;;;;;;;;5027924;28;20108;-76
2022/03/16 08:47:45;;;;;;;26.35;18.25;;;;;;;;;;5020934;28;20880;-75
2022/03/16 08:50:11;;;;;;;25.40;17.75;;;;;;;;;;4993965;28;20550;-75
2022/03/16 08:52:37;;;;;;;22.35;15.35;;;;;;;;;;5027273;28;20522;-74
2022/03/16 08:55:05;;;;;;;25.08;17.15;;;;;;;;;;5010409;28;20034;-75
2022/03/16 08:57:31;;;;;;;23.80;15.57;;;;;;;;;;5010665;28;20041;-76
2022/03/16 08:59:57;;;;;;;23.90;16.25;;;;;;;;;;4994348;28;20042;-76
2022/03/16 09:02:23;;;;;;;21.00;14.00;;;;;;;;;;5010524;28;20112;-74
2022/03/16 09:04:51;;;;;;;22.33;14.55;;;;;;;;;;5010077;28;20128;-75
2022/03/16 09:07:17;;;;;;;22.30;15.30;;;;;;;;;;5010000;28;20092;-77
2022/03/16 09:09:43;;;;;;;19.55;13.93;;;;;;;;;;4978073;28;20760;-77
2022/03/16 09:12:11;;;;;;;20.27;13.82;;;;;;;;;;5010020;28;20547;-77
2022/03/16 09:14:37;;;;;;;20.08;13.52;;;;;;;;;;5028156;28;20033;-76
2022/03/16 09:17:03;;;;;;;17.00;11.18;;;;;;;;;;5009709;28;20049;-77
2022/03/16 09:19:29;;;;;;;18.35;13.40;;;;;;;;;;4993600;28;20038;-78
2022/03/16 09:21:55;;;;;;;17.70;12.73;;;;;;;;;;5027822;28;20050;-76
2022/03/16 09:24:24;;;;;;;19.27;12.95;;;;;;;;;;5009829;28;20508;-75
2022/03/16 09:26:50;;;;;;;16.63;10.10;;;;;;;;;;5009992;28;20045;-82
2022/03/16 09:29:18;;;;;;;17.40;11.70;;;;;;;;;;5009945;28;20048;-76
2022/03/16 09:31:44;;;;;;;16.42;11.60;;;;;;;;;;5027627;28;20049;-76
2022/03/16 09:34:10;;;;;;;15.32;10.18;;;;;;;;;;5027133;28;20030;-80
2022/03/16 09:36:37;;;;;;;15.55;11.13;;;;;;;;;;5027763;28;20037;-75
2022/03/16 09:39:04;;;;;;;15.82;11.02;;;;;;;;;;5009957;28;20437;-75
2022/03/16 09:41:30;;;;;;;15.38;10.52;;;;;;;;;;5009669;28;20133;-79
2022/03/16 09:43:56;;;;;;;15.23;11.07;;;;;;;;;;5009722;28;20448;-75
2022/03/16 09:46:26;;;;;;;15.68;11.23;;;;;;;;;;5027041;28;20036;-80
2022/03/16 09:48:53;;;;;;;16.00;10.65;;;;;;;;;;5027143;28;20474;-76
2022/03/16 09:51:19;;;;;;;12.35;8.80;;;;;;;;;;5008970;28;20460;-77
2022/03/16 09:53:45;;;;;;;16.25;10.10;;;;;;;;;;5009220;28;20106;-75
2022/03/16 09:56:12;;;;;;;17.27;11.93;;;;;;;;;;5009214;28;20394;-82
2022/03/16 09:58:38;;;;;;;16.45;12.02;;;;;;;;;;4993410;28;20069;-75
2022/03/16 10:01:05;;;;;;;15.98;11.52;;;;;;;;;;5009196;28;20418;-75
2022/03/16 10:03:33;;;;;;;14.38;10.68;;;;;;;;;;5008887;28;20042;-80
2022/03/16 10:05:59;;;;;;;15.15;10.57;;;;;;;;;;5006562;28;20052;-75
2022/03/16 10:08:25;;;;;;;16.42;10.15;;;;;;;;;;4992938;28;20067;-74
2022/03/16 10:13:48;;;;;;;13.27;9.07;;;;;;;;;;5009300;28;20402;-76
2022/03/16 10:16:14;;;;;;;15.65;10.50;;;;;;;;;;5009042;28;20037;-76
2022/03/16 10:18:40;;;;;;;16.88;11.73;;;;;;;;;;5027580;28;20120;-77
2022/03/16 10:21:06;;;;;;;16.13;11.45;;;;;;;;;;5008943;28;20037;-76
2022/03/16 10:23:32;;;;;;;16.77;11.05;;;;;;;;;;5009511;28;20488;-76
2022/03/16 10:26:00;;;;;;;15.93;10.82;;;;;;;;;;5009536;28;20068;-76
2022/03/16 10:28:27;;;;;;;15.18;10.98;;;;;;;;;;5009211;28;20496;-75
2022/03/16 10:30:57;;;;;;;14.65;10.30;;;;;;;;;;5009029;28;20080;-76
2022/03/16 10:33:29;;;;;;;18.30;12.63;;;;;;;;;;5009000;28;20432;-76
2022/03/16 10:35:56;;;;;;;20.40;11.75;;;;;;;;;;5009297;28;20509;-76
2022/03/16 10:38:22;;;;;;;14.32;10.75;;;;;;;;;;5008900;28;20140;-75
2022/03/16 10:40:49;;;;;;;18.95;11.18;;;;;;;;;;5008772;28;20116;-77
2022/03/16 10:46:56;;;;;;;17.10;10.57;;;;;;;;;;5008170;28;20045;-75
2022/03/16 10:49:10;;;;;;;13.88;9.82;;;;;;;;;;5001394;28;20466;-77
2022/03/16 10:51:37;;;;;;;13.55;8.45;;;;;;;;;;5008803;28;20042;-75
2022/03/16 10:54:04;;;;;;;14.85;10.00;;;;;;;;;;4992831;28;20046;-79
2022/03/16 10:56:31;;;;;;;15.02;10.23;;;;;;;;;;5008578;28;20034;-77
2022/03/16 10:58:58;;;;;;;13.82;9.88;;;;;;;;;;5008769;28;20048;-75
2022/03/16 11:01:26;;;;;;;13.40;9.75;;;;;;;;;;5026406;28;20481;-76
2022/03/16 11:03:53;;;;;;;12.50;9.30;;;;;;;;;;5008753;28;20042;-76
2022/03/16 11:06:23;;;;;;;13.88;9.70;;;;;;;;;;5008977;28;20037;-76
2022/03/16 11:08:50;;;;;;;12.93;9.50;;;;;;;;;;5008497;28;20052;-78
2022/03/16 11:14:02;;;;;;;13.57;8.53;;;;;;;;;;5026575;28;20071;-76
2022/03/16 11:16:29;;;;;;;10.98;8.00;;;;;;;;;;5027782;28;20042;-75
2022/03/16 11:18:56;;;;;;;11.13;7.57;;;;;;;;;;5011593;28;20056;-79
2022/03/16 11:21:26;;;;;;;12.70;8.80;;;;;;;;;;5011254;28;20048;-75
2022/03/16 11:26:49;;;;;;;13.37;9.17;;;;;;;;;;5011444;28;20049;-76
2022/03/16 11:29:26;;;;;;;12.10;8.90;;;;;;;;;;5029198;28;20379;-76
2022/03/16 11:32:07;;;;;;;12.18;9.05;;;;;;;;;;4995122;28;20041;-76
2022/03/16 11:34:35;;;;;;;11.00;8.40;;;;;;;;;;4995722;28;20049;-76
2022/03/16 11:37:02;;;;;;;12.32;8.98;;;;;;;;;;5029391;28;20502;-76
2022/03/16 11:39:39;;;;;;;11.85;8.25;;;;;;;;;;5011218;28;20045;-76
2022/03/16 11:42:06;;;;;;;14.57;9.25;;;;;;;;;;5011378;28;20034;-77
2022/03/16 11:44:33;;;;;;;13.35;8.93;;;;;;;;;;4995700;28;20494;-76
2022/03/16 11:47:13;;;;;;;13.73;9.63;;;;;;;;;;5011655;28;20382;-77
2022/03/16 11:49:42;;;;;;;14.57;8.95;;;;;;;;;;4995544;28;20048;-78
2022/03/16 11:52:09;;;;;;;11.00;8.00;;;;;;;;;;5017814;28;20058;-76
2022/03/16 11:54:41;;;;;;;11.60;8.27;;;;;;;;;;5011640;28;20038;-77
2022/03/16 11:57:08;;;;;;;12.52;8.07;;;;;;;;;;5027423;28;20534;-76
2022/03/16 11:59:35;;;;;;;11.52;8.65;;;;;;;;;;4995621;28;20025;-78
2022/03/16 12:02:21;;;;;;;11.63;8.32;;;;;;;;;;4995258;28;20047;-75
2022/03/16 12:04:47;;;;;;;12.93;8.98;;;;;;;;;;5011461;28;20045;-78
2022/03/16 12:07:21;;;;;;;10.15;7.85;;;;;;;;;;5010989;28;20048;-75
2022/03/16 12:10:03;;;;;;;11.48;8.25;;;;;;;;;;5011146;28;20510;-75
2022/03/16 12:12:51;;;;;;;11.25;8.23;;;;;;;;;;5010716;28;20064;-75
2022/03/16 12:15:23;;;;;;;12.35;9.40;;;;;;;;;;4992130;28;20053;-77
2022/03/16 12:17:55;;;;;;;14.20;8.85;;;;;;;;;;5010970;28;20089;-76
2022/03/16 12:20:22;;;;;;;11.45;8.20;;;;;;;;;;5011108;28;20098;-77
2022/03/16 12:22:58;;;;;;;13.10;8.70;;;;;;;;;;5011298;28;20531;-77
2022/03/16 12:25:27;;;;;;;13.40;9.32;;;;;;;;;;5010441;28;20445;-76
2022/03/16 12:30:42;;;;;;;11.40;8.60;;;;;;;;;;5010724;28;20501;-77
2022/03/16 12:33:11;;;;;;;12.07;7.45;;;;;;;;;;5028809;28;20029;-75
2022/03/16 12:35:38;;;;;;;12.50;8.23;;;;;;;;;;5010914;28;20049;-75
2022/03/16 12:38:10;;;;;;;12.07;7.97;;;;;;;;;;5020116;28;20045;-75
2022/03/16 12:42:31;;;;;;;15.23;9.45;;;;;;;;;;5010448;28;20049;-74
2022/03/16 12:43:27;;;;;;;13.07;9.10;;;;;;;;;;5010179;28;20052;-76
2022/03/16 12:46:01;;;;;;;11.00;8.10;;;;;;;;;;5010871;28;20042;-76
2022/03/16 12:48:33;;;;;;;12.68;8.68;;;;;;;;;;5008435;28;20095;-76
2022/03/16 12:51:00;;;;;;;14.18;9.40;;;;;;;;;;5010452;28;20042;-76
2022/03/16 12:53:46;;;;;;;12.65;8.65;;;;;;;;;;5027772;28;20049;-75
2022/03/16 12:56:15;;;;;;;13.98;9.52;;;;;;;;;;4993980;28;20048;-75
2022/03/16 12:58:41;;;;;;;12.07;8.73;;;;;;;;;;5010478;28;20129;-82
2022/03/16 13:01:16;;;;;;;15.55;9.80;;;;;;;;;;5028176;28;20116;-76
2022/03/16 13:03:43;;;;;;;13.77;9.33;;;;;;;;;;4994073;28;20045;-77
2022/03/16 13:06:17;;;;;;;16.63;10.35;;;;;;;;;;5010041;28;20053;-76
2022/03/16 13:08:49;;;;;;;15.57;9.45;;;;;;;;;;5010750;28;20065;-74
2022/03/16 13:11:28;;;;;;;15.27;9.10;;;;;;;;;;5009758;28;20053;-75
2022/03/16 13:14:01;;;;;;;15.18;9.75;;;;;;;;;;5010306;28;20067;-75
2022/03/16 13:16:46;;;;;;;13.85;9.45;;;;;;;;;;5027962;28;20033;-75
2022/03/16 13:19:25;;;;;;;13.10;9.03;;;;;;;;;;4993950;28;20102;-76
2022/03/16 13:22:17;;;;;;;13.48;9.05;;;;;;;;;;5009364;28;20124;-75
2022/03/16 13:24:42;;;;;;;16.98;9.80;;;;;;;;;;5005206;28;20073;-74
2022/03/16 13:27:16;;;;;;;12.75;9.02;;;;;;;;;;5027868;28;20037;-76
2022/03/16 13:29:49;;;;;;;16.00;10.05;;;;;;;;;;5010105;28;20512;-75
2022/03/16 13:32:16;;;;;;;16.00;10.27;;;;;;;;;;5009728;28;20102;-78
2022/03/16 13:34:43;;;;;;;19.90;10.40;;;;;;;;;;4993620;28;20041;-75
2022/03/16 13:37:22;;;;;;;13.65;9.98;;;;;;;;;;5025064;28;20509;-76
2022/03/16 13:40:03;;;;;;;14.77;9.98;;;;;;;;;;5023369;28;20394;-76
2022/03/16 13:42:30;;;;;;;14.52;10.13;;;;;;;;;;5009472;28;20045;-75
2022/03/16 13:45:10;;;;;;;16.35;10.13;;;;;;;;;;5009456;28;20116;-78
2022/03/16 13:47:36;;;;;;;16.35;9.98;;;;;;;;;;5027299;28;20144;-76
2022/03/16 13:50:03;;;;;;;14.50;9.40;;;;;;;;;;5027559;28;20487;-76
2022/03/16 13:52:35;;;;;;;13.23;9.60;;;;;;;;;;5003327;28;20092;-75
2022/03/16 13:55:11;;;;;;;15.77;10.00;;;;;;;;;;5009590;28;20045;-75
2022/03/16 13:57:42;;;;;;;16.85;10.55;;;;;;;;;;5027245;28;20383;-75
2022/03/16 14:00:10;;;;;;;17.70;11.00;;;;;;;;;;5009506;28;20045;-74
2022/03/16 14:02:36;;;;;;;16.25;10.85;;;;;;;;;;5009449;28;20091;-76
2022/03/16 14:05:04;;;;;;;17.33;11.02;;;;;;;;;;5009209;28;20037;-75
2022/03/16 14:07:34;;;;;;;16.38;10.32;;;;;;;;;;5008997;28;20452;-75
2022/03/16 14:10:01;;;;;;;14.93;9.90;;;;;;;;;;4992612;28;20056;-74
2022/03/16 14:12:32;;;;;;;21.13;10.80;;;;;;;;;;5026551;28;20240;-74
2022/03/16 14:15:03;;;;;;;19.13;10.10;;;;;;;;;;5024718;28;20507;-82
2022/03/16 14:17:48;;;;;;;16.10;10.00;;;;;;;;;;5008833;28;20167;-74
2022/03/16 14:20:16;;;;;;;15.52;10.05;;;;;;;;;;5026746;28;20501;-74
2022/03/16 14:22:49;;;;;;;14.32;9.35;;;;;;;;;;4992828;28;20124;-84
2022/03/16 14:25:19;;;;;;;16.20;10.20;;;;;;;;;;5006763;28;20109;-76
2022/03/16 14:27:48;;;;;;;17.05;10.70;;;;;;;;;;5027051;28;20048;-75
2022/03/16 14:30:16;;;;;;;18.20;10.82;;;;;;;;;;5009041;28;20084;-74
2022/03/16 14:32:42;;;;;;;17.35;10.65;;;;;;;;;;5026569;28;20046;-76
2022/03/16 14:35:09;;;;;;;18.80;11.80;;;;;;;;;;5008757;28;20041;-75